sensor_id;sensor_type;location;lat;lon;timestamp;temperature;humidity
10873;DHT22;34586;53.616;10.032;2023-01-30T00:01:22;4.50;99.90
10873;DHT22;34586;53.616;10.032;2023-01-30T00:03:48;4.50;99.90
10873;DHT22;34586;53.616;10.032;2023-01-30T00:06:14;4.50;99.90
10873;DHT22;34586;53.616;10.032;2023-01-30T00:08:40;4.50;99.90
10873;DHT22;34586;53.616;10.032;2023-01-30T00:11:08;4.50;99.90
10873;DHT22;34586;53.616;10.032;2023-01-30T00:13:34;4.60;99.90
10873;DHT22;34586;53.616;10.032;2023-01-30T00:16:00;4.60;99.90
10873;DHT22;34586;53.616;10.032;2023-01-30T00:18:26;4.60;99.90
10873;DHT22;34586;53.616;10.032;2023-01-30T00:20:59;4.60;99.90
10873;DHT22;34586;53.616;10.032;2023-01-30T00:23:27;4.60;99.90
10873;DHT22;34586;53.616;10.032;2023-01-30T00:25:52;4.70;99.90
10873;DHT22;34586;53.616;10.032;2023-01-30T00:28:18;4.80;99.90
10873;DHT22;34586;53.616;10.032;2023-01-30T00:30:46;4.70;99.90
10873;DHT22;34586;53.616;10.032;2023-01-30T00:33:12;4.70;99.90
10873;DHT22;34586;53.616;10.032;2023-01-30T00:35:43;4.70;99.90
10873;DHT22;34586;53.616;10.032;2023-01-30T00:38:08;4.70;99.90
10873;DHT22;34586;53.616;10.032;2023-01-30T00:40:34;4.70;99.90
10873;DHT22;34586;53.616;10.032;2023-01-30T00:43:00;4.80;99.90
10873;DHT22;34586;53.616;10.032;2023-01-30T00:45:45;4.80;99.90
10873;DHT22;34586;53.616;10.032;2023-01-30T00:48:30;4.80;99.90
10873;DHT22;34586;53.616;10.032;2023-01-30T00:50:56;4.90;99.90
10873;DHT22;34586;53.616;10.032;2023-01-30T00:53:22;4.90;99.90
10873;DHT22;34586;53.616;10.032;2023-01-30T00:55:50;4.90;99.90
10873;DHT22;34586;53.616;10.032;2023-01-30T00:58:23;4.90;99.90
10873;DHT22;34586;53.616;10.032;2023-01-30T01:00:49;4.90;99.90
10873;DHT22;34586;53.616;10.032;2023-01-30T01:03:15;4.90;99.90
10873;DHT22;34586;53.616;10.032;2023-01-30T01:05:42;4.90;99.90
10873;DHT22;34586;53.616;10.032;2023-01-30T01:08:08;4.50;99.90
10873;DHT22;34586;53.616;10.032;2023-01-30T01:10:34;5.00;99.90
10873;DHT22;34586;53.616;10.032;2023-01-30T01:13:00;5.00;99.90
10873;DHT22;34586;53.616;10.032;2023-01-30T01:15:26;5.10;99.90
10873;DHT22;34586;53.616;10.032;2023-01-30T01:17:52;5.10;99.90
10873;DHT22;34586;53.616;10.032;2023-01-30T01:20:19;5.00;99.90
10873;DHT22;34586;53.616;10.032;2023-01-30T01:22:45;5.00;99.90
10873;DHT22;34586;53.616;10.032;2023-01-30T01:25:14;5.10;99.90
10873;DHT22;34586;53.616;10.032;2023-01-30T01:27:39;5.10;99.90
10873;DHT22;34586;53.616;10.032;2023-01-30T01:30:06;5.10;99.90
10873;DHT22;34586;53.616;10.032;2023-01-30T01:32:32;5.10;99.90
10873;DHT22;34586;53.616;10.032;2023-01-30T01:34:57;5.10;99.90
10873;DHT22;34586;53.616;10.032;2023-01-30T01:37:23;5.10;99.90
10873;DHT22;34586;53.616;10.032;2023-01-30T01:39:48;5.10;99.90
10873;DHT22;34586;53.616;10.032;2023-01-30T01:42:35;5.10;99.90
10873;DHT22;34586;53.616;10.032;2023-01-30T01:47:38;5.10;99.90
10873;DHT22;34586;53.616;10.032;2023-01-30T01:50:09;5.10;99.90
10873;DHT22;34586;53.616;10.032;2023-01-30T01:52:36;5.10;99.90
10873;DHT22;34586;53.616;10.032;2023-01-30T01:55:04;5.10;99.90
10873;DHT22;34586;53.616;10.032;2023-01-30T01:57:39;5.10;99.90
10873;DHT22;34586;53.616;10.032;2023-01-30T02:00:16;5.10;99.90
10873;DHT22;34586;53.616;10.032;2023-01-30T02:02:55;5.20;99.90
10873;DHT22;34586;53.616;10.032;2023-01-30T02:05:23;5.20;99.90
10873;DHT22;34586;53.616;10.032;2023-01-30T02:08:02;5.10;99.90
10873;DHT22;34586;53.616;10.032;2023-01-30T02:11:18;5.20;99.90
10873;DHT22;34586;53.616;10.032;2023-01-30T02:13:25;5.20;99.90
10873;DHT22;34586;53.616;10.032;2023-01-30T02:15:51;5.20;99.90
10873;DHT22;34586;53.616;10.032;2023-01-30T02:18:17;5.20;99.90
10873;DHT22;34586;53.616;10.032;2023-01-30T02:21:10;5.20;99.90
10873;DHT22;34586;53.616;10.032;2023-01-30T02:45:40;5.30;99.90
10873;DHT22;34586;53.616;10.032;2023-01-30T02:48:16;5.40;99.90
10873;DHT22;34586;53.616;10.032;2023-01-30T02:51:03;5.40;99.90
10873;DHT22;34586;53.616;10.032;2023-01-30T02:53:33;5.40;99.90
10873;DHT22;34586;53.616;10.032;2023-01-30T02:56:00;5.40;99.90
10873;DHT22;34586;53.616;10.032;2023-01-30T02:58:28;5.40;99.90
10873;DHT22;34586;53.616;10.032;2023-01-30T03:03:37;5.50;99.90
10873;DHT22;34586;53.616;10.032;2023-01-30T03:09:22;5.50;99.90
10873;DHT22;34586;53.616;10.032;2023-01-30T03:14:52;5.50;99.90
10873;DHT22;34586;53.616;10.032;2023-01-30T03:17:21;5.60;99.90
10873;DHT22;34586;53.616;10.032;2023-01-30T03:19:48;5.60;99.90
10873;DHT22;34586;53.616;10.032;2023-01-30T03:22:14;5.60;99.90
10873;DHT22;34586;53.616;10.032;2023-01-30T03:24:40;5.60;99.90
10873;DHT22;34586;53.616;10.032;2023-01-30T03:27:09;5.60;99.90
10873;DHT22;34586;53.616;10.032;2023-01-30T03:29:35;5.60;99.90
10873;DHT22;34586;53.616;10.032;2023-01-30T03:32:01;5.70;99.90
10873;DHT22;34586;53.616;10.032;2023-01-30T03:34:26;5.70;99.90
10873;DHT22;34586;53.616;10.032;2023-01-30T03:36:52;5.70;99.90
10873;DHT22;34586;53.616;10.032;2023-01-30T03:39:18;5.70;99.90
10873;DHT22;34586;53.616;10.032;2023-01-30T03:41:44;5.80;99.90
10873;DHT22;34586;53.616;10.032;2023-01-30T03:44:10;5.80;99.90
10873;DHT22;34586;53.616;10.032;2023-01-30T03:46:35;5.80;99.90
10873;DHT22;34586;53.616;10.032;2023-01-30T03:49:01;5.80;99.90
10873;DHT22;34586;53.616;10.032;2023-01-30T03:51:26;5.90;99.90
10873;DHT22;34586;53.616;10.032;2023-01-30T03:53:52;5.90;99.90
10873;DHT22;34586;53.616;10.032;2023-01-30T03:56:18;6.00;99.90
10873;DHT22;34586;53.616;10.032;2023-01-30T03:58:43;5.90;99.90
10873;DHT22;34586;53.616;10.032;2023-01-30T04:01:09;5.90;99.90
10873;DHT22;34586;53.616;10.032;2023-01-30T04:03:35;6.00;99.90
10873;DHT22;34586;53.616;10.032;2023-01-30T04:06:00;6.00;99.90
10873;DHT22;34586;53.616;10.032;2023-01-30T04:08:26;6.00;99.90
10873;DHT22;34586;53.616;10.032;2023-01-30T04:10:52;6.00;99.90
10873;DHT22;34586;53.616;10.032;2023-01-30T04:13:17;6.10;99.90
10873;DHT22;34586;53.616;10.032;2023-01-30T04:15:43;6.10;99.90
10873;DHT22;34586;53.616;10.032;2023-01-30T04:18:08;6.10;99.90
10873;DHT22;34586;53.616;10.032;2023-01-30T04:20:35;6.00;99.90
10873;DHT22;34586;53.616;10.032;2023-01-30T04:23:00;6.00;99.90
10873;DHT22;34586;53.616;10.032;2023-01-30T04:25:26;5.80;99.90
10873;DHT22;34586;53.616;10.032;2023-01-30T04:27:52;5.60;99.90
10873;DHT22;34586;53.616;10.032;2023-01-30T04:30:17;5.50;99.90
10873;DHT22;34586;53.616;10.032;2023-01-30T04:32:43;5.50;99.90
10873;DHT22;34586;53.616;10.032;2023-01-30T04:35:09;5.50;99.90
10873;DHT22;34586;53.616;10.032;2023-01-30T04:37:34;5.50;99.90
10873;DHT22;34586;53.616;10.032;2023-01-30T04:40:00;5.50;99.90
10873;DHT22;34586;53.616;10.032;2023-01-30T04:42:26;5.50;99.90
10873;DHT22;34586;53.616;10.032;2023-01-30T04:44:51;5.50;99.90
10873;DHT22;34586;53.616;10.032;2023-01-30T04:47:17;5.40;99.90
10873;DHT22;34586;53.616;10.032;2023-01-30T04:49:42;5.50;99.90
10873;DHT22;34586;53.616;10.032;2023-01-30T04:52:08;5.60;99.90
10873;DHT22;34586;53.616;10.032;2023-01-30T04:54:34;5.60;99.90
10873;DHT22;34586;53.616;10.032;2023-01-30T04:56:59;5.60;99.90
10873;DHT22;34586;53.616;10.032;2023-01-30T04:59:25;5.60;99.90
10873;DHT22;34586;53.616;10.032;2023-01-30T05:01:51;5.60;99.90
10873;DHT22;34586;53.616;10.032;2023-01-30T05:04:16;5.70;99.90
10873;DHT22;34586;53.616;10.032;2023-01-30T05:06:42;5.70;99.90
10873;DHT22;34586;53.616;10.032;2023-01-30T05:09:08;5.70;99.90
10873;DHT22;34586;53.616;10.032;2023-01-30T05:11:33;5.70;99.90
10873;DHT22;34586;53.616;10.032;2023-01-30T05:13:59;5.80;99.90
10873;DHT22;34586;53.616;10.032;2023-01-30T05:16:25;5.80;99.90
10873;DHT22;34586;53.616;10.032;2023-01-30T05:18:51;5.80;99.90
10873;DHT22;34586;53.616;10.032;2023-01-30T05:21:22;5.80;99.90
10873;DHT22;34586;53.616;10.032;2023-01-30T05:23:49;5.80;99.90
10873;DHT22;34586;53.616;10.032;2023-01-30T05:26:15;5.80;99.90
10873;DHT22;34586;53.616;10.032;2023-01-30T05:28:41;5.80;99.90
10873;DHT22;34586;53.616;10.032;2023-01-30T05:31:10;5.80;99.90
10873;DHT22;34586;53.616;10.032;2023-01-30T05:33:36;5.80;99.90
10873;DHT22;34586;53.616;10.032;2023-01-30T05:36:02;5.80;99.90
10873;DHT22;34586;53.616;10.032;2023-01-30T05:38:28;5.80;99.90
10873;DHT22;34586;53.616;10.032;2023-01-30T05:41:01;5.70;99.90
10873;DHT22;34586;53.616;10.032;2023-01-30T05:43:27;5.70;99.90
10873;DHT22;34586;53.616;10.032;2023-01-30T05:45:54;5.70;99.90
10873;DHT22;34586;53.616;10.032;2023-01-30T05:48:21;5.70;99.90
10873;DHT22;34586;53.616;10.032;2023-01-30T05:50:48;5.70;99.90
10873;DHT22;34586;53.616;10.032;2023-01-30T05:53:14;5.60;99.90
10873;DHT22;34586;53.616;10.032;2023-01-30T05:55:39;5.60;99.90
10873;DHT22;34586;53.616;10.032;2023-01-30T05:58:05;5.60;99.90
10873;DHT22;34586;53.616;10.032;2023-01-30T06:00:31;5.60;99.90
10873;DHT22;34586;53.616;10.032;2023-01-30T06:02:56;5.60;99.90
10873;DHT22;34586;53.616;10.032;2023-01-30T06:05:22;5.50;99.90
10873;DHT22;34586;53.616;10.032;2023-01-30T06:07:47;5.50;99.90
10873;DHT22;34586;53.616;10.032;2023-01-30T06:10:13;5.60;99.90
10873;DHT22;34586;53.616;10.032;2023-01-30T06:12:38;5.50;99.90
10873;DHT22;34586;53.616;10.032;2023-01-30T06:15:05;5.50;99.90
10873;DHT22;34586;53.616;10.032;2023-01-30T06:17:30;5.50;99.90
10873;DHT22;34586;53.616;10.032;2023-01-30T06:19:56;5.40;99.90
10873;DHT22;34586;53.616;10.032;2023-01-30T06:22:21;5.70;99.90
10873;DHT22;34586;53.616;10.032;2023-01-30T06:24:47;5.40;99.90
10873;DHT22;34586;53.616;10.032;2023-01-30T06:27:13;5.40;99.90
10873;DHT22;34586;53.616;10.032;2023-01-30T06:29:38;5.30;99.90
10873;DHT22;34586;53.616;10.032;2023-01-30T06:32:04;5.20;99.90
10873;DHT22;34586;53.616;10.032;2023-01-30T06:34:30;5.20;99.90
10873;DHT22;34586;53.616;10.032;2023-01-30T06:36:55;5.10;99.90
10873;DHT22;34586;53.616;10.032;2023-01-30T06:39:21;5.10;99.90
10873;DHT22;34586;53.616;10.032;2023-01-30T06:41:47;5.20;99.90
10873;DHT22;34586;53.616;10.032;2023-01-30T06:44:12;5.10;99.90
10873;DHT22;34586;53.616;10.032;2023-01-30T06:46:38;5.20;99.90
10873;DHT22;34586;53.616;10.032;2023-01-30T06:49:03;5.20;99.90
10873;DHT22;34586;53.616;10.032;2023-01-30T06:51:29;5.10;99.90
10873;DHT22;34586;53.616;10.032;2023-01-30T06:53:55;5.20;99.90
10873;DHT22;34586;53.616;10.032;2023-01-30T06:56:20;5.10;99.90
10873;DHT22;34586;53.616;10.032;2023-01-30T06:58:46;5.10;99.90
10873;DHT22;34586;53.616;10.032;2023-01-30T07:01:11;5.10;99.90
10873;DHT22;34586;53.616;10.032;2023-01-30T07:03:37;5.20;99.90
10873;DHT22;34586;53.616;10.032;2023-01-30T07:06:03;5.10;99.90
10873;DHT22;34586;53.616;10.032;2023-01-30T07:08:28;5.20;99.90
10873;DHT22;34586;53.616;10.032;2023-01-30T07:10:54;5.10;99.90
10873;DHT22;34586;53.616;10.032;2023-01-30T07:13:19;5.10;99.90
10873;DHT22;34586;53.616;10.032;2023-01-30T07:15:45;5.00;99.90
10873;DHT22;34586;53.616;10.032;2023-01-30T07:18:11;5.00;99.90
10873;DHT22;34586;53.616;10.032;2023-01-30T07:20:37;5.20;99.90
10873;DHT22;34586;53.616;10.032;2023-01-30T07:23:03;5.10;99.90
10873;DHT22;34586;53.616;10.032;2023-01-30T07:25:29;5.10;99.90
10873;DHT22;34586;53.616;10.032;2023-01-30T07:27:56;5.20;99.90
10873;DHT22;34586;53.616;10.032;2023-01-30T07:30:21;5.20;99.90
10873;DHT22;34586;53.616;10.032;2023-01-30T07:32:51;5.10;99.90
10873;DHT22;34586;53.616;10.032;2023-01-30T07:35:19;5.10;99.90
10873;DHT22;34586;53.616;10.032;2023-01-30T07:37:49;5.20;99.90
10873;DHT22;34586;53.616;10.032;2023-01-30T07:40:15;5.20;99.90
10873;DHT22;34586;53.616;10.032;2023-01-30T07:42:41;5.30;99.90
10873;DHT22;34586;53.616;10.032;2023-01-30T07:45:07;5.30;99.90
10873;DHT22;34586;53.616;10.032;2023-01-30T07:47:33;5.40;99.90
10873;DHT22;34586;53.616;10.032;2023-01-30T07:49:59;5.50;99.90
10873;DHT22;34586;53.616;10.032;2023-01-30T07:52:24;5.50;99.90
10873;DHT22;34586;53.616;10.032;2023-01-30T07:54:50;5.50;99.90
10873;DHT22;34586;53.616;10.032;2023-01-30T07:57:16;5.60;99.90
10873;DHT22;34586;53.616;10.032;2023-01-30T07:59:41;5.60;99.90
10873;DHT22;34586;53.616;10.032;2023-01-30T08:02:08;5.60;99.90
10873;DHT22;34586;53.616;10.032;2023-01-30T08:04:35;5.60;99.90
10873;DHT22;34586;53.616;10.032;2023-01-30T08:07:00;5.70;99.90
10873;DHT22;34586;53.616;10.032;2023-01-30T08:09:26;5.70;99.90
10873;DHT22;34586;53.616;10.032;2023-01-30T08:11:51;5.70;99.90
10873;DHT22;34586;53.616;10.032;2023-01-30T08:14:17;5.70;99.90
10873;DHT22;34586;53.616;10.032;2023-01-30T08:16:43;5.70;99.90
10873;DHT22;34586;53.616;10.032;2023-01-30T08:19:08;5.60;99.90
10873;DHT22;34586;53.616;10.032;2023-01-30T08:21:34;5.60;99.90
10873;DHT22;34586;53.616;10.032;2023-01-30T08:24:00;5.60;99.90
10873;DHT22;34586;53.616;10.032;2023-01-30T08:26:25;5.60;99.90
10873;DHT22;34586;53.616;10.032;2023-01-30T08:28:51;5.60;99.90
10873;DHT22;34586;53.616;10.032;2023-01-30T08:31:17;5.70;99.90
10873;DHT22;34586;53.616;10.032;2023-01-30T08:33:43;5.70;99.90
10873;DHT22;34586;53.616;10.032;2023-01-30T08:36:08;5.80;99.90
10873;DHT22;34586;53.616;10.032;2023-01-30T08:38:34;5.80;99.90
10873;DHT22;34586;53.616;10.032;2023-01-30T08:41:03;5.90;99.90
10873;DHT22;34586;53.616;10.032;2023-01-30T08:43:29;6.00;99.90
10873;DHT22;34586;53.616;10.032;2023-01-30T08:45:55;6.00;99.90
10873;DHT22;34586;53.616;10.032;2023-01-30T08:48:21;6.00;99.90
10873;DHT22;34586;53.616;10.032;2023-01-30T08:50:46;6.00;99.90
10873;DHT22;34586;53.616;10.032;2023-01-30T08:53:12;6.10;99.90
10873;DHT22;34586;53.616;10.032;2023-01-30T08:55:38;6.10;99.90
10873;DHT22;34586;53.616;10.032;2023-01-30T08:58:03;6.20;99.90
10873;DHT22;34586;53.616;10.032;2023-01-30T09:00:29;6.20;99.90
10873;DHT22;34586;53.616;10.032;2023-01-30T09:02:56;6.20;99.90
10873;DHT22;34586;53.616;10.032;2023-01-30T09:05:22;6.40;99.90
10873;DHT22;34586;53.616;10.032;2023-01-30T09:07:49;6.40;99.90
10873;DHT22;34586;53.616;10.032;2023-01-30T09:10:15;6.50;91.30
10873;DHT22;34586;53.616;10.032;2023-01-30T09:12:40;6.60;73.80
10873;DHT22;34586;53.616;10.032;2023-01-30T09:15:06;6.60;59.60
10873;DHT22;34586;53.616;10.032;2023-01-30T09:17:32;6.60;85.70
10873;DHT22;34586;53.616;10.032;2023-01-30T09:19:58;6.50;69.70
10873;DHT22;34586;53.616;10.032;2023-01-30T09:22:23;6.60;44.60
10873;DHT22;34586;53.616;10.032;2023-01-30T09:24:49;6.50;66.70
10873;DHT22;34586;53.616;10.032;2023-01-30T09:27:15;6.60;20.30
10873;DHT22;34586;53.616;10.032;2023-01-30T09:29:40;6.70;1.00
10873;DHT22;34586;53.616;10.032;2023-01-30T09:32:06;6.70;1.00
10873;DHT22;34586;53.616;10.032;2023-01-30T09:34:31;6.80;1.00
10873;DHT22;34586;53.616;10.032;2023-01-30T09:36:58;6.80;1.00
10873;DHT22;34586;53.616;10.032;2023-01-30T09:39:27;6.80;1.00
10873;DHT22;34586;53.616;10.032;2023-01-30T09:50:34;7.00;1.00
10873;DHT22;34586;53.616;10.032;2023-01-30T09:55:43;7.10;1.00
10873;DHT22;34586;53.616;10.032;2023-01-30T09:58:19;7.00;1.00
10873;DHT22;34586;53.616;10.032;2023-01-30T10:00:47;6.80;63.90
10873;DHT22;34586;53.616;10.032;2023-01-30T10:03:27;6.70;83.10
10873;DHT22;34586;53.616;10.032;2023-01-30T10:05:59;6.60;99.90
10873;DHT22;34586;53.616;10.032;2023-01-30T10:08:47;6.50;99.90
10873;DHT22;34586;53.616;10.032;2023-01-30T10:11:17;6.20;99.90
10873;DHT22;34586;53.616;10.032;2023-01-30T10:27:16;5.50;99.90
10873;DHT22;34586;53.616;10.032;2023-01-30T10:29:47;5.40;99.90
10873;DHT22;34586;53.616;10.032;2023-01-30T10:32:20;5.40;99.90
10873;DHT22;34586;53.616;10.032;2023-01-30T10:34:53;5.40;99.90
10873;DHT22;34586;53.616;10.032;2023-01-30T10:37:25;5.40;99.90
10873;DHT22;34586;53.616;10.032;2023-01-30T10:45:47;5.80;99.90
10873;DHT22;34586;53.616;10.032;2023-01-30T10:50:58;6.20;99.90
10873;DHT22;34586;53.616;10.032;2023-01-30T10:56:14;6.30;96.30
10873;DHT22;34586;53.616;10.032;2023-01-30T11:01:23;6.00;99.90
10873;DHT22;34586;53.616;10.032;2023-01-30T11:03:58;5.90;99.90
10873;DHT22;34586;53.616;10.032;2023-01-30T11:06:25;5.80;99.90
10873;DHT22;34586;53.616;10.032;2023-01-30T11:08:52;5.70;99.90
10873;DHT22;34586;53.616;10.032;2023-01-30T11:16:27;4.80;99.90
10873;DHT22;34586;53.616;10.032;2023-01-30T11:18:53;4.70;99.90
10873;DHT22;34586;53.616;10.032;2023-01-30T11:21:27;4.70;99.90
10873;DHT22;34586;53.616;10.032;2023-01-30T11:23:54;4.70;99.90
10873;DHT22;34586;53.616;10.032;2023-01-30T11:26:28;4.70;99.90
10873;DHT22;34586;53.616;10.032;2023-01-30T11:28:55;4.60;99.90
10873;DHT22;34586;53.616;10.032;2023-01-30T11:31:25;4.70;99.90
10873;DHT22;34586;53.616;10.032;2023-01-30T11:34:05;4.60;99.90
10873;DHT22;34586;53.616;10.032;2023-01-30T11:36:32;4.70;99.90
10873;DHT22;34586;53.616;10.032;2023-01-30T11:41:42;4.80;99.90
10873;DHT22;34586;53.616;10.032;2023-01-30T11:44:09;4.90;99.90
10873;DHT22;34586;53.616;10.032;2023-01-30T11:46:37;5.00;99.90
10873;DHT22;34586;53.616;10.032;2023-01-30T11:49:14;5.00;99.90
10873;DHT22;34586;53.616;10.032;2023-01-30T11:51:44;5.20;99.90
10873;DHT22;34586;53.616;10.032;2023-01-30T11:54:20;5.30;99.90
10873;DHT22;34586;53.616;10.032;2023-01-30T11:56:52;5.60;99.90
10873;DHT22;34586;53.616;10.032;2023-01-30T11:59:38;5.70;99.90
10873;DHT22;34586;53.616;10.032;2023-01-30T12:02:25;5.80;99.90
10873;DHT22;34586;53.616;10.032;2023-01-30T12:04:58;5.90;99.90
10873;DHT22;34586;53.616;10.032;2023-01-30T12:07:27;5.90;99.90
10873;DHT22;34586;53.616;10.032;2023-01-30T12:09:54;5.90;99.90
10873;DHT22;34586;53.616;10.032;2023-01-30T12:12:45;6.00;99.90
10873;DHT22;34586;53.616;10.032;2023-01-30T12:15:26;6.40;99.90
10873;DHT22;34586;53.616;10.032;2023-01-30T12:20:55;6.60;99.90
10873;DHT22;34586;53.616;10.032;2023-01-30T12:29:38;6.20;99.90
10873;DHT22;34586;53.616;10.032;2023-01-30T12:32:16;6.00;99.90
10873;DHT22;34586;53.616;10.032;2023-01-30T12:34:43;5.60;99.90
10873;DHT22;34586;53.616;10.032;2023-01-30T12:45:37;4.30;99.90
10873;DHT22;34586;53.616;10.032;2023-01-30T12:48:45;4.40;99.90
10873;DHT22;34586;53.616;10.032;2023-01-30T12:54:18;4.80;99.90
10873;DHT22;34586;53.616;10.032;2023-01-30T12:57:01;4.90;99.90
10873;DHT22;34586;53.616;10.032;2023-01-30T13:00:03;5.00;99.90
10873;DHT22;34586;53.616;10.032;2023-01-30T13:05:19;5.20;99.90
10873;DHT22;34586;53.616;10.032;2023-01-30T13:08:05;5.50;99.90
10873;DHT22;34586;53.616;10.032;2023-01-30T13:10:37;5.60;99.90
10873;DHT22;34586;53.616;10.032;2023-01-30T13:13:22;5.80;99.90
10873;DHT22;34586;53.616;10.032;2023-01-30T13:16:35;5.80;99.90
10873;DHT22;34586;53.616;10.032;2023-01-30T13:21:19;5.90;99.90
10873;DHT22;34586;53.616;10.032;2023-01-30T13:26:52;6.00;99.90
10873;DHT22;34586;53.616;10.032;2023-01-30T13:31:52;6.10;99.90
10873;DHT22;34586;53.616;10.032;2023-01-30T13:34:30;6.20;99.90
10873;DHT22;34586;53.616;10.032;2023-01-30T13:37:10;6.20;99.90
10873;DHT22;34586;53.616;10.032;2023-01-30T13:40:02;6.20;99.90
10873;DHT22;34586;53.616;10.032;2023-01-30T13:44:57;6.00;99.90
10873;DHT22;34586;53.616;10.032;2023-01-30T13:56:21;5.70;99.90
10873;DHT22;34586;53.616;10.032;2023-01-30T14:01:23;5.50;99.90
10873;DHT22;34586;53.616;10.032;2023-01-30T14:07:23;5.50;99.90
10873;DHT22;34586;53.616;10.032;2023-01-30T14:10:11;5.60;99.90
10873;DHT22;34586;53.616;10.032;2023-01-30T14:12:42;5.80;99.90
10873;DHT22;34586;53.616;10.032;2023-01-30T14:20:29;6.00;99.90
10873;DHT22;34586;53.616;10.032;2023-01-30T14:23:18;6.00;99.90
10873;DHT22;34586;53.616;10.032;2023-01-30T14:25:49;6.00;99.90
10873;DHT22;34586;53.616;10.032;2023-01-30T14:35:45;6.20;99.90
10873;DHT22;34586;53.616;10.032;2023-01-30T14:38:17;6.20;99.90
10873;DHT22;34586;53.616;10.032;2023-01-30T14:45:53;6.40;99.90
10873;DHT22;34586;53.616;10.032;2023-01-30T14:51:27;6.40;99.90
10873;DHT22;34586;53.616;10.032;2023-01-30T14:57:03;6.50;99.90
10873;DHT22;34586;53.616;10.032;2023-01-30T14:59:53;6.50;99.30
10873;DHT22;34586;53.616;10.032;2023-01-30T15:02:24;6.50;85.10
10873;DHT22;34586;53.616;10.032;2023-01-30T15:05:04;6.60;45.00
10873;DHT22;34586;53.616;10.032;2023-01-30T15:07:49;6.60;42.10
10873;DHT22;34586;53.616;10.032;2023-01-30T15:24:54;6.60;1.00
10873;DHT22;34586;53.616;10.032;2023-01-30T15:30:17;6.60;1.00
10873;DHT22;34586;53.616;10.032;2023-01-30T15:32:46;6.60;1.00
10873;DHT22;34586;53.616;10.032;2023-01-30T15:37:54;6.60;1.00
10873;DHT22;34586;53.616;10.032;2023-01-30T15:40:23;6.60;1.00
10873;DHT22;34586;53.616;10.032;2023-01-30T15:48:17;6.60;1.00
10873;DHT22;34586;53.616;10.032;2023-01-30T15:50:50;6.60;1.00
10873;DHT22;34586;53.616;10.032;2023-01-30T15:53:26;6.60;1.00
10873;DHT22;34586;53.616;10.032;2023-01-30T15:55:53;6.50;1.00
10873;DHT22;34586;53.616;10.032;2023-01-30T15:58:21;6.50;1.00
10873;DHT22;34586;53.616;10.032;2023-01-30T16:00:49;6.50;1.00
10873;DHT22;34586;53.616;10.032;2023-01-30T16:03:23;6.50;1.00
10873;DHT22;34586;53.616;10.032;2023-01-30T16:05:52;6.50;1.00
10873;DHT22;34586;53.616;10.032;2023-01-30T16:08:24;6.40;1.00
10873;DHT22;34586;53.616;10.032;2023-01-30T16:10:51;6.40;1.00
10873;DHT22;34586;53.616;10.032;2023-01-30T16:13:18;6.40;1.00
10873;DHT22;34586;53.616;10.032;2023-01-30T16:16:11;6.40;1.00
10873;DHT22;34586;53.616;10.032;2023-01-30T16:18:48;6.40;1.00
10873;DHT22;34586;53.616;10.032;2023-01-30T16:21:32;6.30;1.00
10873;DHT22;34586;53.616;10.032;2023-01-30T16:26:45;6.30;1.00
10873;DHT22;34586;53.616;10.032;2023-01-30T16:29:15;6.30;1.00
10873;DHT22;34586;53.616;10.032;2023-01-30T16:31:46;6.30;1.00
10873;DHT22;34586;53.616;10.032;2023-01-30T16:34:30;6.30;1.00
10873;DHT22;34586;53.616;10.032;2023-01-30T16:37:02;6.20;1.00
10873;DHT22;34586;53.616;10.032;2023-01-30T16:39:33;6.10;1.00
10873;DHT22;34586;53.616;10.032;2023-01-30T16:42:01;6.10;1.00
10873;DHT22;34586;53.616;10.032;2023-01-30T16:44:29;6.10;1.00
10873;DHT22;34586;53.616;10.032;2023-01-30T16:49:44;6.60;1.00
10873;DHT22;34586;53.616;10.032;2023-01-30T16:52:25;6.00;2.40
10873;DHT22;34586;53.616;10.032;2023-01-30T16:54:54;6.00;1.00
10873;DHT22;34586;53.616;10.032;2023-01-30T16:57:54;6.00;1.00
10873;DHT22;34586;53.616;10.032;2023-01-30T17:00:23;6.00;1.00
10873;DHT22;34586;53.616;10.032;2023-01-30T17:02:55;5.90;1.00
10873;DHT22;34586;53.616;10.032;2023-01-30T17:05:38;5.90;1.00
10873;DHT22;34586;53.616;10.032;2023-01-30T17:08:05;5.90;1.00
10873;DHT22;34586;53.616;10.032;2023-01-30T17:10:53;5.90;1.00
10873;DHT22;34586;53.616;10.032;2023-01-30T17:13:41;6.00;1.00
10873;DHT22;34586;53.616;10.032;2023-01-30T17:18:55;5.90;1.00
10873;DHT22;34586;53.616;10.032;2023-01-30T17:21:24;6.00;1.00
10873;DHT22;34586;53.616;10.032;2023-01-30T17:23:57;6.00;1.00
10873;DHT22;34586;53.616;10.032;2023-01-30T17:26:22;6.00;1.00
10873;DHT22;34586;53.616;10.032;2023-01-30T17:28:48;6.00;1.00
10873;DHT22;34586;53.616;10.032;2023-01-30T17:31:15;6.10;1.00
10873;DHT22;34586;53.616;10.032;2023-01-30T17:33:41;6.00;1.00
10873;DHT22;34586;53.616;10.032;2023-01-30T17:36:23;6.00;1.00
10873;DHT22;34586;53.616;10.032;2023-01-30T17:38:50;6.10;1.00
10873;DHT22;34586;53.616;10.032;2023-01-30T17:41:27;6.00;1.00
10873;DHT22;34586;53.616;10.032;2023-01-30T17:43:54;6.00;1.00
10873;DHT22;34586;53.616;10.032;2023-01-30T17:46:39;6.00;1.00
10873;DHT22;34586;53.616;10.032;2023-01-30T17:49:16;6.00;1.00
10873;DHT22;34586;53.616;10.032;2023-01-30T17:51:42;6.00;1.00
10873;DHT22;34586;53.616;10.032;2023-01-30T17:54:12;6.00;1.00
10873;DHT22;34586;53.616;10.032;2023-01-30T17:56:40;6.00;1.00
10873;DHT22;34586;53.616;10.032;2023-01-30T17:59:14;5.90;1.00
10873;DHT22;34586;53.616;10.032;2023-01-30T18:01:48;5.80;1.00
10873;DHT22;34586;53.616;10.032;2023-01-30T18:04:15;5.80;1.00
10873;DHT22;34586;53.616;10.032;2023-01-30T18:06:42;5.80;1.00
10873;DHT22;34586;53.616;10.032;2023-01-30T18:09:17;5.80;99.90
10873;DHT22;34586;53.616;10.032;2023-01-30T18:11:43;5.80;1.00
10873;DHT22;34586;53.616;10.032;2023-01-30T18:14:09;5.80;1.00
10873;DHT22;34586;53.616;10.032;2023-01-30T18:16:35;5.80;1.00
10873;DHT22;34586;53.616;10.032;2023-01-30T18:19:03;5.70;1.00
10873;DHT22;34586;53.616;10.032;2023-01-30T18:21:31;5.70;1.00
10873;DHT22;34586;53.616;10.032;2023-01-30T18:23:57;5.70;1.00
10873;DHT22;34586;53.616;10.032;2023-01-30T18:26:23;5.60;1.00
10873;DHT22;34586;53.616;10.032;2023-01-30T18:28:49;5.60;1.00
10873;DHT22;34586;53.616;10.032;2023-01-30T18:31:15;5.60;1.00
10873;DHT22;34586;53.616;10.032;2023-01-30T18:33:41;5.50;1.00
10873;DHT22;34586;53.616;10.032;2023-01-30T18:36:10;5.50;1.00
10873;DHT22;34586;53.616;10.032;2023-01-30T18:38:36;5.40;1.00
10873;DHT22;34586;53.616;10.032;2023-01-30T18:41:28;5.30;1.00
10873;DHT22;34586;53.616;10.032;2023-01-30T18:43:59;5.30;1.00
10873;DHT22;34586;53.616;10.032;2023-01-30T18:46:26;5.30;1.00
10873;DHT22;34586;53.616;10.032;2023-01-30T18:48:52;5.20;1.00
10873;DHT22;34586;53.616;10.032;2023-01-30T18:51:21;5.30;1.00
10873;DHT22;34586;53.616;10.032;2023-01-30T18:53:50;5.20;1.00
10873;DHT22;34586;53.616;10.032;2023-01-30T18:56:18;5.10;1.00